Time;durP1;ratioP1;P1;durP2;ratioP2;P2;SDS_P1;SDS_P2;PMS_P1;PMS_P2;Temp;Humidity;BMP_temperature;BMP_pressure;BME280_temperature;BME280_humidity;BME280_pressure;Samples;Min_cycle;Max_cycle;Signal;HPM_P1;HPM_P2
2023/08/17 00:01:39;;;;;;;3.57;3.37;;;20.50;69.90;;;;;;6235537;28;20273;-81
2023/08/17 00:04:42;;;;;;;3.30;3.20;;;20.50;69.90;;;;;;6207678;28;20747;-85
2023/08/17 00:07:45;;;;;;;4.53;4.10;;;20.40;70.00;;;;;;6235465;28;20817;-80
2023/08/17 00:10:48;;;;;;;4.17;3.73;;;20.30;70.20;;;;;;6235663;28;20235;-77
2023/08/17 00:13:51;;;;;;;3.60;3.47;;;20.30;70.20;;;;;;6228070;28;20246;-82
2023/08/17 00:16:56;;;;;;;3.23;3.03;;;20.30;70.20;;;;;;6227221;28;20618;-81
2023/08/17 00:19:59;;;;;;;3.37;3.07;;;20.30;70.40;;;;;;6228688;28;20351;-83
2023/08/17 00:23:02;;;;;;;3.77;3.57;;;20.20;70.40;;;;;;6236287;28;20323;-80
2023/08/17 00:26:05;;;;;;;3.77;3.57;;;20.20;70.50;;;;;;6233819;28;20244;-81
2023/08/17 00:29:10;;;;;;;4.40;3.77;;;20.10;70.50;;;;;;6235148;28;20780;-80
2023/08/17 00:32:14;;;;;;;5.30;3.80;;;20.10;70.70;;;;;;6232813;28;20227;-80
2023/08/17 00:35:17;;;;;;;5.97;4.20;;;20.10;70.80;;;;;;6236415;28;20312;-79
2023/08/17 00:38:21;;;;;;;3.70;3.60;;;20.00;70.80;;;;;;6233682;28;20231;-82
2023/08/17 00:41:24;;;;;;;3.80;3.50;;;20.00;71.00;;;;;;6233017;28;20230;-81
2023/08/17 00:44:27;;;;;;;3.67;3.43;;;20.00;71.10;;;;;;6236053;28;20313;-82
2023/08/17 00:47:32;;;;;;;4.00;3.80;;;20.00;71.00;;;;;;6235126;28;20325;-81
2023/08/17 00:50:37;;;;;;;4.43;4.13;;;19.90;71.20;;;;;;6239774;28;20230;-82
2023/08/17 00:53:40;;;;;;;5.83;4.10;;;19.90;71.20;;;;;;6239788;28;20277;-82
2023/08/17 00:56:43;;;;;;;4.77;4.27;;;19.90;71.30;;;;;;6240612;28;20239;-82
2023/08/17 00:59:47;;;;;;;5.97;4.20;;;19.80;71.30;;;;;;6227194;28;20806;-81
2023/08/17 01:03:08;;;;;;;4.07;3.77;;;19.80;71.20;;;;;;6233321;28;20262;-82
2023/08/17 01:06:12;;;;;;;3.90;3.80;;;19.70;71.20;;;;;;6240309;28;20242;-81
2023/08/17 01:09:15;;;;;;;5.80;4.27;;;19.70;71.20;;;;;;6233082;28;20315;-81
2023/08/17 01:12:26;;;;;;;3.97;3.77;;;19.70;71.20;;;;;;6233658;28;20981;-81
2023/08/17 01:15:36;;;;;;;4.20;3.90;;;19.70;71.20;;;;;;6239599;28;20235;-80
2023/08/17 01:18:41;;;;;;;4.53;4.10;;;19.70;71.10;;;;;;6231625;28;20333;-80
2023/08/17 01:21:51;;;;;;;5.80;3.93;;;19.70;71.20;;;;;;6239243;28;20233;-82
2023/08/17 01:24:58;;;;;;;5.17;4.57;;;19.70;71.10;;;;;;6234596;28;20238;-82
2023/08/17 01:28:01;;;;;;;3.77;3.60;;;19.70;71.10;;;;;;6230927;28;20253;-80
2023/08/17 01:31:11;;;;;;;4.90;3.70;;;19.60;71.20;;;;;;6233403;28;20253;-78
2023/08/17 01:34:20;;;;;;;5.43;5.03;;;19.50;71.20;;;;;;6239588;28;20239;-82
2023/08/17 01:37:25;;;;;;;5.43;4.33;;;19.50;71.40;;;;;;6239009;28;20231;-80
2023/08/17 01:40:33;;;;;;;4.03;3.80;;;19.50;71.40;;;;;;6238163;28;20250;-81
2023/08/17 01:43:37;;;;;;;7.40;4.37;;;19.50;71.40;;;;;;6237693;28;20227;-78
2023/08/17 01:46:41;;;;;;;4.77;4.43;;;19.50;71.40;;;;;;6234354;28;20242;-79
2023/08/17 01:49:46;;;;;;;5.43;5.00;;;19.50;71.50;;;;;;6235747;28;20231;-81
2023/08/17 01:52:50;;;;;;;5.70;5.20;;;19.40;71.50;;;;;;6239142;28;20277;-80
2023/08/17 01:55:55;;;;;;;6.13;4.93;;;19.40;71.70;;;;;;6233278;28;20307;-83
2023/08/17 01:58:58;;;;;;;4.63;4.40;;;19.40;71.80;;;;;;6229263;28;20242;-82
2023/08/17 02:02:01;;;;;;;5.73;3.80;;;19.30;71.70;;;;;;6237628;28;20242;-79
2023/08/17 02:05:05;;;;;;;4.23;3.93;;;19.30;71.80;;;;;;6238917;28;20756;-82
2023/08/17 02:08:08;;;;;;;4.83;3.80;;;19.30;71.80;;;;;;6223291;28;20250;-81
2023/08/17 02:11:12;;;;;;;3.70;3.40;;;19.30;71.90;;;;;;6230801;28;20236;-80
2023/08/17 02:14:16;;;;;;;4.07;3.77;;;19.30;72.10;;;;;;6243570;28;20284;-79
2023/08/17 02:17:21;;;;;;;4.03;3.67;;;19.30;72.10;;;;;;6231240;28;20301;-80
2023/08/17 02:20:24;;;;;;;4.03;3.73;;;19.20;72.10;;;;;;6229402;28;20237;-80
2023/08/17 02:23:27;;;;;;;4.13;3.93;;;19.20;72.10;;;;;;6228918;28;20227;-81
2023/08/17 02:26:32;;;;;;;3.67;3.47;;;19.20;72.10;;;;;;6231315;28;20759;-81
2023/08/17 02:29:37;;;;;;;4.80;4.00;;;19.20;72.10;;;;;;6237995;28;20743;-82
2023/08/17 02:32:40;;;;;;;4.13;3.77;;;19.10;72.20;;;;;;6236567;28;20231;-81
2023/08/17 02:35:43;;;;;;;4.83;4.23;;;19.10;72.40;;;;;;6228547;28;20241;-82
2023/08/17 02:38:46;;;;;;;4.27;3.47;;;19.10;72.50;;;;;;6236670;28;20246;-81
2023/08/17 02:41:51;;;;;;;4.80;4.20;;;19.10;72.20;;;;;;6237483;28;20257;-82
2023/08/17 02:44:54;;;;;;;4.33;3.90;;;19.20;72.00;;;;;;6237465;28;20230;-81
2023/08/17 02:47:58;;;;;;;4.83;4.03;;;19.10;72.10;;;;;;6214211;28;20340;-81
2023/08/17 02:51:02;;;;;;;5.27;4.20;;;19.10;72.20;;;;;;6218483;28;20241;-81
2023/08/17 02:54:06;;;;;;;4.30;4.00;;;19.10;72.20;;;;;;6230477;28;20257;-81
2023/08/17 02:57:10;;;;;;;5.33;4.03;;;19.00;72.20;;;;;;6228742;28;20335;-79
2023/08/17 03:00:15;;;;;;;9.47;3.80;;;19.00;72.20;;;;;;6236309;28;20316;-83
2023/08/17 03:03:18;;;;;;;5.33;4.53;;;18.90;72.20;;;;;;6228692;28;20750;-81
2023/08/17 03:06:21;;;;;;;6.77;3.90;;;18.90;72.20;;;;;;6235029;28;20856;-80
2023/08/17 03:09:24;;;;;;;5.80;4.03;;;18.90;72.10;;;;;;6236132;28;20746;-79
2023/08/17 03:12:29;;;;;;;4.40;4.00;;;19.00;71.90;;;;;;6238114;28;20921;-77
2023/08/17 03:15:32;;;;;;;6.90;4.27;;;19.00;71.70;;;;;;6235038;28;20274;-79
2023/08/17 03:18:37;;;;;;;4.53;4.13;;;19.00;71.70;;;;;;6227467;28;20238;-81
2023/08/17 03:21:42;;;;;;;3.70;3.60;;;18.90;71.80;;;;;;6232040;28;20293;-82
2023/08/17 03:24:45;;;;;;;3.87;3.57;;;18.90;71.70;;;;;;6226360;28;20304;-80
2023/08/17 03:27:49;;;;;;;4.60;4.27;;;18.90;71.70;;;;;;6233372;28;20666;-78
2023/08/17 03:30:56;;;;;;;7.77;3.83;;;18.90;71.60;;;;;;6235596;28;20870;-77
2023/08/17 03:34:00;;;;;;;4.80;3.70;;;18.90;71.30;;;;;;6230571;28;20245;-76
2023/08/17 03:37:04;;;;;;;4.10;3.80;;;18.90;71.20;;;;;;6237167;28;20243;-78
2023/08/17 03:40:08;;;;;;;3.83;3.63;;;18.90;71.10;;;;;;6243077;28;20357;-77
2023/08/17 03:43:13;;;;;;;3.73;3.53;;;18.90;71.20;;;;;;6263593;28;20230;-79
2023/08/17 03:46:16;;;;;;;3.73;3.53;;;18.80;71.20;;;;;;6266979;28;20319;-77
2023/08/17 03:49:19;;;;;;;4.03;3.73;;;18.80;71.10;;;;;;6266973;28;20257;-79
2023/08/17 03:52:22;;;;;;;5.87;3.80;;;18.80;70.90;;;;;;6266678;28;20210;-78
2023/08/17 03:55:25;;;;;;;6.17;3.97;;;18.90;70.70;;;;;;6234293;28;20223;-79
2023/08/17 03:58:34;;;;;;;4.53;3.50;;;18.80;70.50;;;;;;6257433;28;20234;-82
2023/08/17 04:01:38;;;;;;;4.13;3.83;;;18.80;70.50;;;;;;6263668;28;20230;-79
2023/08/17 04:04:41;;;;;;;4.90;3.63;;;18.90;70.40;;;;;;6263063;28;20215;-77
2023/08/17 04:07:47;;;;;;;3.60;3.40;;;18.90;70.20;;;;;;6259201;28;20223;-80
2023/08/17 04:10:50;;;;;;;4.47;3.80;;;18.90;70.30;;;;;;6266270;28;20237;-82
2023/08/17 04:13:54;;;;;;;5.60;4.00;;;18.90;70.30;;;;;;6269407;28;20223;-79
2023/08/17 04:16:58;;;;;;;3.70;3.50;;;18.80;70.00;;;;;;6268183;28;20227;-79
2023/08/17 04:20:01;;;;;;;4.23;3.93;;;18.90;69.80;;;;;;6265137;28;20307;-79
2023/08/17 04:23:04;;;;;;;4.57;3.63;;;18.90;69.70;;;;;;6271442;28;20222;-78
2023/08/17 04:26:07;;;;;;;3.10;3.00;;;19.00;69.60;;;;;;6272851;28;20246;-77
2023/08/17 04:29:12;;;;;;;3.70;3.27;;;18.90;69.70;;;;;;6272650;28;20222;-80
2023/08/17 04:32:16;;;;;;;3.80;3.50;;;19.00;69.70;;;;;;6270227;28;20252;-80
2023/08/17 04:35:19;;;;;;;4.33;3.80;;;19.00;69.60;;;;;;6269989;28;20219;-79
2023/08/17 04:38:22;;;;;;;3.70;3.40;;;19.00;69.10;;;;;;6266492;28;20249;-79
2023/08/17 04:41:25;;;;;;;3.30;3.10;;;19.10;69.00;;;;;;6265718;28;20241;-80
2023/08/17 04:44:30;;;;;;;3.70;3.40;;;19.10;68.70;;;;;;6264039;28;20215;-79
2023/08/17 04:47:33;;;;;;;4.10;3.80;;;19.10;68.70;;;;;;6271510;28;20324;-80
2023/08/17 04:50:36;;;;;;;3.63;3.30;;;19.20;68.60;;;;;;6270118;28;20230;-79
2023/08/17 04:53:40;;;;;;;3.10;2.90;;;19.20;68.20;;;;;;6253569;28;20238;-82
2023/08/17 04:56:43;;;;;;;3.50;3.40;;;19.20;68.40;;;;;;6251171;28;20231;-79
2023/08/17 04:59:47;;;;;;;3.57;3.30;;;19.30;68.20;;;;;;6245375;28;20238;-81
2023/08/17 05:02:51;;;;;;;3.83;3.30;;;19.40;67.90;;;;;;6241983;28;20332;-80
2023/08/17 05:05:54;;;;;;;3.10;2.90;;;19.40;67.70;;;;;;6237085;28;20254;-81
2023/08/17 05:08:58;;;;;;;2.90;2.80;;;19.50;67.60;;;;;;6248476;28;20250;-81
2023/08/17 05:12:01;;;;;;;3.77;3.50;;;19.50;67.30;;;;;;6232690;28;20231;-82
2023/08/17 05:15:06;;;;;;;3.43;3.23;;;19.50;67.40;;;;;;6228420;28;20257;-80
2023/08/17 05:18:13;;;;;;;3.77;3.40;;;19.60;67.10;;;;;;6241541;28;20890;-80
2023/08/17 05:21:16;;;;;;;3.27;2.97;;;19.70;67.00;;;;;;6242053;28;20243;-78
2023/08/17 05:24:20;;;;;;;4.03;3.33;;;19.70;66.90;;;;;;6244676;28;20241;-79
2023/08/17 05:27:23;;;;;;;3.77;3.53;;;19.70;66.80;;;;;;6242441;28;20276;-79
2023/08/17 05:30:28;;;;;;;3.17;2.97;;;19.80;66.90;;;;;;6233107;28;20243;-79
2023/08/17 05:33:31;;;;;;;5.13;3.17;;;19.90;66.50;;;;;;6238005;28;20251;-80
2023/08/17 05:36:34;;;;;;;3.37;3.07;;;19.90;66.60;;;;;;6235710;28;20377;-80
2023/08/17 05:39:37;;;;;;;3.50;3.30;;;20.00;66.10;;;;;;6237771;28;20274;-80
2023/08/17 05:42:41;;;;;;;3.73;3.40;;;20.10;66.10;;;;;;6235023;28;20226;-79
2023/08/17 05:45:45;;;;;;;2.90;2.80;;;20.10;66.40;;;;;;6245431;28;20316;-85
2023/08/17 05:48:48;;;;;;;3.57;3.37;;;20.10;65.80;;;;;;6245292;28;20242;-83
2023/08/17 05:51:51;;;;;;;3.77;3.57;;;20.10;65.80;;;;;;6246574;28;20242;-81
2023/08/17 05:54:55;;;;;;;3.40;3.20;;;20.00;65.60;;;;;;6250491;28;20234;-81
2023/08/17 05:57:58;;;;;;;4.00;3.63;;;20.00;66.00;;;;;;6250379;28;20747;-80
2023/08/17 06:01:08;;;;;;;3.87;2.90;;;20.10;65.80;;;;;;6249374;28;20242;-84
2023/08/17 06:04:11;;;;;;;2.80;2.70;;;20.30;66.00;;;;;;6252029;28;20245;-83
2023/08/17 06:07:14;;;;;;;3.23;3.13;;;20.50;66.00;;;;;;6243708;28;20735;-83
2023/08/17 06:10:20;;;;;;;3.17;3.07;;;20.50;65.80;;;;;;6247366;28;20830;-81
2023/08/17 06:13:23;;;;;;;3.83;3.53;;;20.50;65.80;;;;;;6254561;28;20757;-84
2023/08/17 06:16:28;;;;;;;3.77;3.13;;;20.40;66.10;;;;;;6254484;28;20249;-81
2023/08/17 06:19:31;;;;;;;3.40;3.20;;;20.30;66.40;;;;;;6245339;28;20257;-80
2023/08/17 06:22:34;;;;;;;3.03;2.93;;;20.30;66.20;;;;;;6230611;28;20264;-81
2023/08/17 06:25:37;;;;;;;3.20;3.10;;;20.30;66.50;;;;;;6230487;28;20954;-80
2023/08/17 06:28:41;;;;;;;9.53;4.03;;;20.30;66.60;;;;;;6232623;28;20245;-81
2023/08/17 06:31:45;;;;;;;3.37;3.17;;;20.30;66.80;;;;;;6231143;28;20239;-82
2023/08/17 06:34:48;;;;;;;4.13;3.53;;;20.30;66.80;;;;;;6226281;28;20326;-80
2023/08/17 06:37:56;;;;;;;8.33;3.30;;;20.30;66.60;;;;;;6236930;28;20396;-80
2023/08/17 06:40:59;;;;;;;4.73;3.40;;;20.30;66.50;;;;;;6236434;28;20324;-81
2023/08/17 06:44:03;;;;;;;3.30;3.10;;;20.30;66.70;;;;;;6238073;28;20235;-82
2023/08/17 06:47:07;;;;;;;3.67;3.47;;;20.30;66.90;;;;;;6231240;28;20875;-81
2023/08/17 06:50:11;;;;;;;4.00;3.77;;;20.50;66.40;;;;;;6228668;28;20230;-81
2023/08/17 06:53:15;;;;;;;4.20;3.90;;;20.50;66.20;;;;;;6235034;28;20245;-83
2023/08/17 06:56:22;;;;;;;4.57;3.33;;;20.50;66.10;;;;;;6237090;28;20288;-82
2023/08/17 06:59:25;;;;;;;3.50;3.30;;;20.60;65.70;;;;;;6233195;28;20241;-83
2023/08/17 07:02:30;;;;;;;3.33;3.00;;;20.70;65.90;;;;;;6232386;28;20246;-82
2023/08/17 07:05:49;;;;;;;4.90;3.50;;;20.70;66.00;;;;;;6238619;28;20704;-79
2023/08/17 07:08:52;;;;;;;3.70;3.40;;;20.80;65.60;;;;;;6237919;28;20258;-80
2023/08/17 07:11:55;;;;;;;4.13;3.77;;;20.90;65.10;;;;;;6238109;28;20231;-81
2023/08/17 07:14:59;;;;;;;4.10;3.13;;;21.00;64.80;;;;;;6236651;28;20322;-80
2023/08/17 07:18:03;;;;;;;2.90;2.80;;;21.10;64.70;;;;;;6221355;28;20243;-81
2023/08/17 07:21:06;;;;;;;5.03;3.70;;;21.30;64.90;;;;;;6229298;28;20228;-81
2023/08/17 07:24:13;;;;;;;3.80;3.70;;;21.30;64.30;;;;;;6226852;28;20757;-81
2023/08/17 07:27:17;;;;;;;4.13;3.30;;;21.30;64.60;;;;;;6236098;28;20235;-80
2023/08/17 07:30:20;;;;;;;3.33;3.07;;;21.30;64.40;;;;;;6233633;28;20238;-80
2023/08/17 07:33:25;;;;;;;3.90;3.23;;;21.40;64.30;;;;;;6237067;28;20230;-81
2023/08/17 07:36:28;;;;;;;3.60;3.40;;;21.50;64.20;;;;;;6229056;28;20250;-82
2023/08/17 07:39:31;;;;;;;5.70;3.43;;;21.50;64.50;;;;;;6233309;28;20234;-83
2023/08/17 07:42:35;;;;;;;3.50;3.30;;;21.60;64.50;;;;;;6209647;28;20781;-79
2023/08/17 07:45:38;;;;;;;3.03;2.93;;;21.70;64.80;;;;;;6225882;28;20243;-81
2023/08/17 07:48:42;;;;;;;3.63;3.33;;;21.70;64.90;;;;;;6234398;28;20393;-81
2023/08/17 07:51:45;;;;;;;4.30;3.93;;;21.70;64.60;;;;;;6236054;28;20241;-83
2023/08/17 07:54:49;;;;;;;5.23;3.53;;;21.90;64.00;;;;;;6236298;28;20311;-84
2023/08/17 07:57:52;;;;;;;3.83;3.53;;;22.00;63.90;;;;;;6233168;28;20245;-80
2023/08/17 08:00:55;;;;;;;4.30;3.77;;;22.20;63.40;;;;;;6229567;28;20235;-81
2023/08/17 08:04:00;;;;;;;3.97;3.63;;;22.30;62.90;;;;;;6231854;28;20250;-80
2023/08/17 08:07:03;;;;;;;4.37;4.00;;;22.40;62.40;;;;;;6231199;28;20686;-80
2023/08/17 08:10:07;;;;;;;4.57;4.13;;;22.50;62.50;;;;;;6232779;28;20242;-81
2023/08/17 08:13:11;;;;;;;4.67;4.23;;;22.70;62.30;;;;;;6225875;28;20885;-81
2023/08/17 08:16:15;;;;;;;4.53;3.67;;;22.90;61.70;;;;;;6235679;28;20357;-82
2023/08/17 08:19:19;;;;;;;4.83;3.80;;;22.80;61.50;;;;;;6222866;28;20242;-81
2023/08/17 08:22:25;;;;;;;4.17;3.80;;;23.00;62.00;;;;;;6205734;28;20321;-79
2023/08/17 08:25:28;;;;;;;4.43;4.03;;;23.40;61.40;;;;;;6202891;28;20242;-78
2023/08/17 08:28:31;;;;;;;3.80;3.60;;;23.60;60.90;;;;;;6202679;28;20239;-80
2023/08/17 08:31:34;;;;;;;4.17;3.97;;;23.60;61.00;;;;;;6220035;28;20407;-83
2023/08/17 08:34:39;;;;;;;4.27;4.03;;;23.70;61.60;;;;;;6211741;28;20235;-80
2023/08/17 08:37:42;;;;;;;4.60;4.07;;;23.90;60.90;;;;;;6172605;28;20255;-84
2023/08/17 08:40:47;;;;;;;3.57;3.33;;;24.00;60.40;;;;;;6217798;28;20269;-79
2023/08/17 08:43:50;;;;;;;4.20;3.77;;;24.20;60.80;;;;;;6220780;28;20227;-82
2023/08/17 08:46:57;;;;;;;4.53;4.13;;;24.40;60.40;;;;;;6228564;28;20249;-81
2023/08/17 08:50:03;;;;;;;6.40;4.20;;;24.60;60.10;;;;;;6216458;28;20246;-79
2023/08/17 08:53:14;;;;;;;4.90;4.60;;;24.50;60.10;;;;;;6214813;28;20239;-83
2023/08/17 08:56:21;;;;;;;4.73;4.43;;;24.40;59.90;;;;;;6221371;28;20255;-80
2023/08/17 08:59:26;;;;;;;4.73;4.33;;;24.00;60.70;;;;;;6209934;28;20243;-80
2023/08/17 09:02:31;;;;;;;4.37;3.97;;;23.70;61.50;;;;;;6224201;28;20251;-82
2023/08/17 09:05:37;;;;;;;4.00;3.80;;;23.50;62.10;;;;;;6217804;28;20235;-81
2023/08/17 09:08:41;;;;;;;4.67;4.40;;;23.30;62.70;;;;;;6228298;28;20395;-81
2023/08/17 09:11:44;;;;;;;4.90;4.70;;;23.20;63.10;;;;;;6199875;28;20311;-78
2023/08/17 09:14:47;;;;;;;5.33;4.87;;;23.10;63.40;;;;;;6202826;28;20382;-81
2023/08/17 09:17:51;;;;;;;5.33;5.03;;;23.00;63.80;;;;;;6184335;28;20239;-82
2023/08/17 09:20:56;;;;;;;4.67;4.47;;;23.10;63.70;;;;;;6208772;28;20789;-81
2023/08/17 09:23:59;;;;;;;4.73;4.47;;;23.20;64.10;;;;;;6214405;28;20860;-79
2023/08/17 09:27:03;;;;;;;5.70;5.00;;;23.30;64.40;;;;;;6213956;28;20224;-80
2023/08/17 09:30:13;;;;;;;5.43;4.90;;;23.50;63.50;;;;;;6213642;28;20246;-79
2023/08/17 09:33:22;;;;;;;7.07;5.17;;;23.50;64.20;;;;;;6178354;28;20765;-81
2023/08/17 09:36:27;;;;;;;7.60;4.50;;;23.50;63.40;;;;;;6199091;28;20369;-81
2023/08/17 09:39:30;;;;;;;5.03;4.73;;;23.60;64.30;;;;;;6211063;28;20786;-79
2023/08/17 09:42:36;;;;;;;5.07;4.77;;;23.80;64.00;;;;;;6206190;28;20227;-81
2023/08/17 09:45:39;;;;;;;4.80;4.30;;;24.00;62.80;;;;;;6203715;28;20231;-80
2023/08/17 09:48:44;;;;;;;5.00;4.60;;;24.00;62.60;;;;;;6213073;28;20251;-81
2023/08/17 09:51:49;;;;;;;4.63;4.43;;;24.10;62.30;;;;;;6213182;28;20373;-79
2023/08/17 09:54:54;;;;;;;5.23;4.93;;;24.00;62.90;;;;;;6207676;28;20230;-83
2023/08/17 09:57:58;;;;;;;4.63;4.33;;;24.20;63.40;;;;;;6213359;28;20322;-81
2023/08/17 10:01:05;;;;;;;4.73;4.43;;;24.50;63.10;;;;;;6208017;28;20718;-83
2023/08/17 10:04:09;;;;;;;4.40;4.07;;;25.00;62.70;;;;;;6211422;28;20231;-80
2023/08/17 10:07:18;;;;;;;4.77;4.50;;;25.00;61.30;;;;;;6192745;28;20745;-83
2023/08/17 10:10:28;;;;;;;4.10;3.90;;;25.20;62.20;;;;;;6212833;28;20645;-80
2023/08/17 10:13:36;;;;;;;4.67;4.47;;;25.20;60.70;;;;;;6201445;28;20748;-83
2023/08/17 10:16:46;;;;;;;4.30;4.20;;;25.10;61.00;;;;;;6203340;28;20349;-80
2023/08/17 10:19:54;;;;;;;4.93;4.53;;;25.00;61.90;;;;;;6227169;28;20252;-83
2023/08/17 10:23:08;;;;;;;5.07;4.87;;;24.90;61.70;;;;;;6229070;28;20374;-80
2023/08/17 10:26:12;;;;;;;5.93;5.37;;;24.60;61.90;;;;;;6209176;28;20227;-80
2023/08/17 10:29:17;;;;;;;4.80;4.60;;;24.40;62.60;;;;;;6236503;28;20254;-81
2023/08/17 10:32:23;;;;;;;5.23;4.77;;;24.30;62.80;;;;;;6224289;28;20238;-82
2023/08/17 10:35:28;;;;;;;5.10;4.70;;;24.40;63.00;;;;;;6235368;28;20288;-81
2023/08/17 10:38:33;;;;;;;5.00;4.70;;;24.50;62.80;;;;;;6225916;28;20877;-81
2023/08/17 10:41:47;;;;;;;5.70;5.30;;;24.80;63.10;;;;;;6235226;28;20226;-82
2023/08/17 10:44:51;;;;;;;5.70;5.20;;;25.10;61.30;;;;;;6234563;28;20805;-78
2023/08/17 10:48:23;;;;;;;5.53;5.00;;;25.10;61.10;;;;;;6230344;28;20263;-80
2023/08/17 10:51:26;;;;;;;9.73;6.00;;;25.00;61.50;;;;;;6234292;28;20254;-81
2023/08/17 10:54:38;;;;;;;4.70;4.50;;;24.80;61.90;;;;;;6228674;28;20767;-79
2023/08/17 10:57:42;;;;;;;5.03;4.83;;;25.00;62.50;;;;;;6227261;28;20246;-82
2023/08/17 11:00:46;;;;;;;5.73;5.33;;;25.20;62.10;;;;;;6233675;28;20246;-81
2023/08/17 11:04:12;;;;;;;5.87;5.53;;;25.20;61.70;;;;;;6227183;28;20234;-82
2023/08/17 11:07:16;;;;;;;5.93;5.37;;;25.30;61.20;;;;;;6230096;28;20235;-80
2023/08/17 11:10:31;;;;;;;5.60;5.30;;;25.40;60.90;;;;;;6233094;28;20381;-80
2023/08/17 11:13:37;;;;;;;5.20;4.90;;;25.30;62.40;;;;;;6227064;28;20234;-81
2023/08/17 11:16:40;;;;;;;5.77;5.37;;;25.40;61.60;;;;;;6232900;28;20265;-82
2023/08/17 11:19:43;;;;;;;5.73;5.33;;;25.40;61.80;;;;;;6227994;28;20243;-82
2023/08/17 11:22:47;;;;;;;5.50;5.23;;;25.30;61.50;;;;;;6236203;28;20357;-79
2023/08/17 11:25:53;;;;;;;5.53;5.13;;;25.30;61.80;;;;;;6228304;28;20231;-80
2023/08/17 11:28:57;;;;;;;5.03;4.93;;;25.20;61.90;;;;;;6231214;28;20239;-81
2023/08/17 11:32:00;;;;;;;5.57;5.10;;;25.30;62.20;;;;;;6234680;28;20374;-80
2023/08/17 11:35:04;;;;;;;6.33;5.93;;;25.40;61.60;;;;;;6233178;28;20227;-82
2023/08/17 11:38:08;;;;;;;5.57;5.10;;;25.50;61.70;;;;;;6227540;28;20483;-82
2023/08/17 11:41:14;;;;;;;5.30;4.97;;;25.50;62.20;;;;;;6234666;28;20231;-84
2023/08/17 11:44:21;;;;;;;6.17;5.60;;;25.60;61.70;;;;;;6207148;28;20371;-83
2023/08/17 11:47:26;;;;;;;5.60;5.30;;;25.80;61.80;;;;;;6230864;28;20234;-82
2023/08/17 11:50:34;;;;;;;7.07;5.40;;;25.90;61.50;;;;;;6235345;28;20385;-81
2023/08/17 11:53:42;;;;;;;5.90;5.70;;;26.00;61.70;;;;;;6233739;28;20234;-80
2023/08/17 11:56:53;;;;;;;6.17;5.80;;;26.20;61.10;;;;;;6224222;28;20318;-82
2023/08/17 11:59:56;;;;;;;5.83;5.40;;;26.20;61.50;;;;;;6229951;28;20242;-83
2023/08/17 12:03:00;;;;;;;6.03;5.63;;;26.30;61.60;;;;;;6234034;28;20238;-80
2023/08/17 12:06:03;;;;;;;5.53;5.33;;;26.40;62.20;;;;;;6236301;28;20233;-82
2023/08/17 12:09:06;;;;;;;5.47;5.27;;;26.50;61.00;;;;;;6235242;28;20245;-80
2023/08/17 12:12:12;;;;;;;5.17;4.97;;;26.80;61.00;;;;;;6236498;28;20242;-82
2023/08/17 12:15:16;;;;;;;6.13;5.10;;;27.00;60.70;;;;;;6233806;28;20258;-80
2023/08/17 12:18:22;;;;;;;6.13;5.90;;;27.30;60.30;;;;;;6231603;28;20235;-80
2023/08/17 12:21:28;;;;;;;6.33;6.03;;;27.30;59.50;;;;;;6201315;28;20243;-83
2023/08/17 12:24:32;;;;;;;5.80;5.50;;;27.30;59.50;;;;;;6208497;28;20250;-82
2023/08/17 12:27:37;;;;;;;5.73;5.43;;;27.40;59.70;;;;;;6212936;28;20246;-81
2023/08/17 12:30:40;;;;;;;6.17;5.77;;;27.40;59.30;;;;;;6208252;28;20273;-82
2023/08/17 12:33:43;;;;;;;6.37;5.90;;;27.20;60.10;;;;;;6217259;28;20239;-80
2023/08/17 12:36:46;;;;;;;6.73;6.23;;;27.20;60.50;;;;;;6215313;28;20334;-82
2023/08/17 12:39:50;;;;;;;6.00;5.73;;;27.10;60.10;;;;;;6216087;28;20350;-82
2023/08/17 12:42:54;;;;;;;5.57;5.13;;;26.90;60.70;;;;;;6209111;28;20290;-84
2023/08/17 12:45:57;;;;;;;6.17;5.77;;;27.20;60.90;;;;;;6216349;28;20286;-82
2023/08/17 12:49:01;;;;;;;6.80;5.57;;;27.50;60.60;;;;;;6218707;28;20234;-83
2023/08/17 12:52:04;;;;;;;5.73;5.33;;;28.00;59.70;;;;;;6215696;28;20275;-83
2023/08/17 12:55:08;;;;;;;5.63;5.43;;;28.30;58.60;;;;;;6207464;28;20239;-82
2023/08/17 12:58:12;;;;;;;5.80;5.50;;;28.30;58.00;;;;;;6226263;28;20350;-80
2023/08/17 13:01:16;;;;;;;5.60;5.30;;;28.40;57.90;;;;;;6199620;28;20697;-80
2023/08/17 13:04:19;;;;;;;6.47;6.15;;;28.30;58.20;;;;;;6223149;28;20263;-80
2023/08/17 13:07:22;;;;;;;6.43;6.05;;;28.30;58.20;;;;;;6213739;28;20338;-81
2023/08/17 13:10:25;;;;;;;6.50;6.03;;;28.20;58.00;;;;;;6216322;28;20239;-83
2023/08/17 13:13:30;;;;;;;5.90;5.65;;;28.10;57.90;;;;;;6214352;28;20239;-80
2023/08/17 13:16:33;;;;;;;6.25;5.90;;;27.80;58.50;;;;;;6216978;28;20270;-80
2023/08/17 13:19:36;;;;;;;6.00;5.80;;;27.70;59.00;;;;;;6222379;28;20249;-83
2023/08/17 13:22:39;;;;;;;5.90;5.63;;;27.70;58.50;;;;;;6237803;28;20739;-83
2023/08/17 13:25:42;;;;;;;6.50;6.13;;;27.70;58.80;;;;;;6235534;28;20711;-80
2023/08/17 13:28:47;;;;;;;6.57;6.27;;;27.60;59.00;;;;;;6238317;28;20765;-83
2023/08/17 13:31:50;;;;;;;5.87;5.57;;;27.50;59.40;;;;;;6235516;28;20707;-80
2023/08/17 13:34:53;;;;;;;6.93;6.63;;;27.60;59.40;;;;;;6238379;28;20249;-80
2023/08/17 13:37:57;;;;;;;6.73;6.33;;;27.60;59.00;;;;;;6239192;28;20243;-80
2023/08/17 13:41:00;;;;;;;6.40;6.20;;;27.70;59.30;;;;;;6219961;28;20223;-78
2023/08/17 13:44:05;;;;;;;5.50;5.33;;;27.60;59.30;;;;;;6236744;28;20305;-78
2023/08/17 13:47:08;;;;;;;5.23;5.13;;;27.50;59.80;;;;;;6231385;28;20322;-81
2023/08/17 13:50:13;;;;;;;5.60;5.40;;;27.70;58.70;;;;;;6234016;28;20728;-78
2023/08/17 13:53:16;;;;;;;6.55;5.93;;;27.80;58.80;;;;;;6237642;28;20678;-79
2023/08/17 13:56:19;;;;;;;6.07;5.77;;;27.90;58.90;;;;;;6238578;28;20312;-80
2023/08/17 13:59:23;;;;;;;5.60;5.30;;;27.90;58.70;;;;;;6237807;28;20325;-81
2023/08/17 14:02:26;;;;;;;6.03;5.55;;;27.90;58.90;;;;;;6211566;28;20281;-79
2023/08/17 14:05:33;;;;;;;5.30;5.00;;;27.80;59.10;;;;;;6235526;28;20238;-79
2023/08/17 14:08:36;;;;;;;6.60;6.10;;;27.60;58.90;;;;;;6216630;28;20266;-80
2023/08/17 14:11:40;;;;;;;6.03;5.70;;;27.80;58.90;;;;;;6239159;28;20250;-82
2023/08/17 14:14:44;;;;;;;5.63;5.40;;;28.00;58.60;;;;;;6230783;28;20239;-81
2023/08/17 14:17:47;;;;;;;5.60;5.20;;;28.00;59.00;;;;;;6239107;28;21192;-80
2023/08/17 14:20:50;;;;;;;5.40;5.20;;;28.10;58.80;;;;;;6238351;28;20242;-78
2023/08/17 14:23:54;;;;;;;5.18;4.90;;;28.10;58.70;;;;;;6230672;28;20249;-81
2023/08/17 14:26:58;;;;;;;5.20;5.00;;;28.10;58.30;;;;;;6233827;28;20234;-81
2023/08/17 14:30:03;;;;;;;6.03;5.70;;;28.10;58.70;;;;;;6236894;28;20826;-79
2023/08/17 14:33:06;;;;;;;5.80;5.40;;;28.10;58.80;;;;;;6211445;28;20227;-81
2023/08/17 14:36:10;;;;;;;5.28;5.07;;;28.20;58.30;;;;;;6239297;28;20385;-82
2023/08/17 14:39:13;;;;;;;5.90;5.55;;;28.20;57.50;;;;;;6234777;28;20335;-81
2023/08/17 14:42:16;;;;;;;5.65;5.25;;;28.30;57.70;;;;;;6221676;28;20967;-80
2023/08/17 14:45:21;;;;;;;5.20;4.97;;;28.60;57.30;;;;;;6238199;28;20509;-79
2023/08/17 14:48:24;;;;;;;5.68;5.35;;;28.60;58.00;;;;;;6233965;28;20235;-80
2023/08/17 14:51:29;;;;;;;4.82;4.63;;;28.70;57.80;;;;;;6237008;28;20234;-80
2023/08/17 14:54:34;;;;;;;5.97;5.40;;;28.70;57.00;;;;;;6233619;28;20234;-82
2023/08/17 14:57:37;;;;;;;5.40;5.13;;;28.60;57.20;;;;;;6218576;28;20850;-80
2023/08/17 15:00:41;;;;;;;5.28;5.00;;;28.50;58.00;;;;;;6230379;28;20262;-81
2023/08/17 15:03:46;;;;;;;5.43;5.07;;;28.30;57.70;;;;;;6237255;28;20258;-79
2023/08/17 15:06:49;;;;;;;5.10;4.88;;;28.10;58.50;;;;;;6235886;28;20238;-81
2023/08/17 15:09:53;;;;;;;5.30;5.20;;;28.20;58.50;;;;;;6236358;28;20321;-80
2023/08/17 15:12:56;;;;;;;5.90;5.60;;;28.30;58.30;;;;;;6238268;28;20242;-81
2023/08/17 15:16:01;;;;;;;5.78;5.25;;;28.30;58.20;;;;;;6233326;28;20231;-78
2023/08/17 15:19:04;;;;;;;5.15;5.00;;;28.10;58.40;;;;;;6237535;28;20239;-80
2023/08/17 15:22:10;;;;;;;5.68;5.15;;;28.00;58.60;;;;;;6227133;28;20383;-81
2023/08/17 15:25:16;;;;;;;5.65;5.35;;;28.00;58.90;;;;;;6237507;28;20335;-81
2023/08/17 15:28:19;;;;;;;4.60;4.50;;;28.10;58.70;;;;;;6236930;28;20230;-80
2023/08/17 15:31:24;;;;;;;4.90;4.70;;;28.20;57.90;;;;;;6236391;28;20330;-80
2023/08/17 15:34:28;;;;;;;6.33;6.03;;;28.10;58.20;;;;;;6228947;28;20238;-82
2023/08/17 15:37:31;;;;;;;4.95;4.70;;;28.00;58.30;;;;;;6226161;28;20230;-82
2023/08/17 15:40:34;;;;;;;5.40;5.10;;;27.90;59.00;;;;;;6235549;28;20269;-81
2023/08/17 15:43:37;;;;;;;5.83;5.53;;;27.90;59.00;;;;;;6234061;28;20234;-81
2023/08/17 15:46:42;;;;;;;5.63;5.40;;;27.80;59.00;;;;;;6237109;28;20356;-80
2023/08/17 15:49:46;;;;;;;6.20;5.80;;;27.70;58.80;;;;;;6237028;28;20495;-79
2023/08/17 15:52:50;;;;;;;5.80;5.50;;;27.50;59.20;;;;;;6228280;28;21147;-80
2023/08/17 15:55:53;;;;;;;5.40;5.20;;;27.40;59.40;;;;;;6234871;28;20254;-82
2023/08/17 15:58:56;;;;;;;5.10;4.90;;;27.20;59.70;;;;;;6234683;28;20359;-81
2023/08/17 16:02:14;;;;;;;5.43;5.20;;;27.10;59.70;;;;;;6235407;28;20304;-80